sensor_id;sensor_type;location;lat;lon;timestamp;pressure;altitude;pressure_sealevel;temperature;humidity
39954;BME280;25631;51.516;-0.470;2024-01-15T00:02:07;100798.08;;;1.98;33.43
39954;BME280;25631;51.516;-0.470;2024-01-15T00:04:44;100800.52;;;1.72;33.51
39954;BME280;25631;51.516;-0.470;2024-01-15T00:07:20;100800.89;;;2.10;33.43
39954;BME280;25631;51.516;-0.470;2024-01-15T00:09:57;100798.66;;;2.37;33.36
39954;BME280;25631;51.516;-0.470;2024-01-15T00:12:33;100797.18;;;2.12;33.34
39954;BME280;25631;51.516;-0.470;2024-01-15T00:15:10;100794.82;;;1.68;33.35
39954;BME280;25631;51.516;-0.470;2024-01-15T00:17:46;100792.96;;;2.05;33.46
39954;BME280;25631;51.516;-0.470;2024-01-15T00:20:23;100791.96;;;2.15;33.49
39954;BME280;25631;51.516;-0.470;2024-01-15T00:22:59;100786.63;;;2.25;33.42
39954;BME280;25631;51.516;-0.470;2024-01-15T00:25:35;100787.41;;;1.92;33.28
39954;BME280;25631;51.516;-0.470;2024-01-15T00:28:12;100782.95;;;2.11;33.21
39954;BME280;25631;51.516;-0.470;2024-01-15T00:30:48;100782.45;;;2.08;33.05
39954;BME280;25631;51.516;-0.470;2024-01-15T00:33:25;100783.03;;;1.85;33.17
39954;BME280;25631;51.516;-0.470;2024-01-15T00:36:01;100778.08;;;1.96;33.18
39954;BME280;25631;51.516;-0.470;2024-01-15T00:38:37;100775.91;;;2.05;33.17
39954;BME280;25631;51.516;-0.470;2024-01-15T00:41:14;100772.72;;;1.82;33.21
39954;BME280;25631;51.516;-0.470;2024-01-15T00:43:50;100772.78;;;1.65;33.18
39954;BME280;25631;51.516;-0.470;2024-01-15T00:46:27;100772.07;;;1.68;33.33
39954;BME280;25631;51.516;-0.470;2024-01-15T00:49:03;100771.53;;;1.61;33.39
39954;BME280;25631;51.516;-0.470;2024-01-15T00:51:40;100771.05;;;1.64;33.47
39954;BME280;25631;51.516;-0.470;2024-01-15T00:54:17;100767.68;;;1.50;33.47
39954;BME280;25631;51.516;-0.470;2024-01-15T00:56:53;100760.37;;;1.81;33.58
39954;BME280;25631;51.516;-0.470;2024-01-15T00:59:30;100755.08;;;1.63;33.61
39954;BME280;25631;51.516;-0.470;2024-01-15T01:02:06;100747.47;;;1.81;33.62
39954;BME280;25631;51.516;-0.470;2024-01-15T01:04:43;100740.49;;;1.49;33.74
39954;BME280;25631;51.516;-0.470;2024-01-15T01:07:19;100740.46;;;1.48;33.73
39954;BME280;25631;51.516;-0.470;2024-01-15T01:09:56;100739.28;;;1.67;33.76
39954;BME280;25631;51.516;-0.470;2024-01-15T01:12:32;100739.40;;;1.53;33.72
39954;BME280;25631;51.516;-0.470;2024-01-15T01:15:09;100739.62;;;1.61;33.77
39954;BME280;25631;51.516;-0.470;2024-01-15T01:17:45;100738.80;;;1.58;33.77
39954;BME280;25631;51.516;-0.470;2024-01-15T01:20:22;100732.61;;;1.52;33.83
39954;BME280;25631;51.516;-0.470;2024-01-15T01:22:58;100732.53;;;1.58;33.76
39954;BME280;25631;51.516;-0.470;2024-01-15T01:25:35;100730.87;;;1.39;33.80
39954;BME280;25631;51.516;-0.470;2024-01-15T01:28:11;100728.57;;;1.33;33.74
39954;BME280;25631;51.516;-0.470;2024-01-15T01:30:48;100729.47;;;1.20;33.82
39954;BME280;25631;51.516;-0.470;2024-01-15T01:33:24;100728.46;;;1.20;33.76
39954;BME280;25631;51.516;-0.470;2024-01-15T01:36:00;100731.20;;;1.13;33.78
39954;BME280;25631;51.516;-0.470;2024-01-15T01:38:37;100730.52;;;0.97;33.96
39954;BME280;25631;51.516;-0.470;2024-01-15T01:41:14;100736.01;;;0.94;34.08
39954;BME280;25631;51.516;-0.470;2024-01-15T01:43:50;100733.94;;;1.05;34.05
39954;BME280;25631;51.516;-0.470;2024-01-15T01:46:27;100732.53;;;0.82;34.11
39954;BME280;25631;51.516;-0.470;2024-01-15T01:49:04;100730.56;;;1.13;34.17
39954;BME280;25631;51.516;-0.470;2024-01-15T01:51:40;100728.91;;;0.88;34.21
39954;BME280;25631;51.516;-0.470;2024-01-15T01:54:18;100729.67;;;1.04;34.29
39954;BME280;25631;51.516;-0.470;2024-01-15T01:56:55;100731.16;;;1.17;34.35
39954;BME280;25631;51.516;-0.470;2024-01-15T01:59:34;100732.86;;;0.98;34.34
39954;BME280;25631;51.516;-0.470;2024-01-15T02:02:11;100734.25;;;1.00;34.44
39954;BME280;25631;51.516;-0.470;2024-01-15T02:04:48;100732.25;;;1.13;34.46
39954;BME280;25631;51.516;-0.470;2024-01-15T02:07:25;100733.01;;;0.84;34.42
39954;BME280;25631;51.516;-0.470;2024-01-15T02:10:02;100735.47;;;1.06;34.42
39954;BME280;25631;51.516;-0.470;2024-01-15T02:12:39;100735.37;;;0.91;34.47
39954;BME280;25631;51.516;-0.470;2024-01-15T02:15:15;100736.05;;;0.92;34.54
39954;BME280;25631;51.516;-0.470;2024-01-15T02:18:00;100737.80;;;0.86;34.52
39954;BME280;25631;51.516;-0.470;2024-01-15T02:20:36;100740.37;;;0.89;34.45
39954;BME280;25631;51.516;-0.470;2024-01-15T02:23:14;100743.50;;;0.90;34.48
39954;BME280;25631;51.516;-0.470;2024-01-15T02:25:51;100741.28;;;1.14;34.46
39954;BME280;25631;51.516;-0.470;2024-01-15T02:28:28;100738.73;;;1.10;34.61
39954;BME280;25631;51.516;-0.470;2024-01-15T02:31:04;100736.07;;;0.99;34.47
39954;BME280;25631;51.516;-0.470;2024-01-15T02:33:41;100733.04;;;0.70;34.40
39954;BME280;25631;51.516;-0.470;2024-01-15T02:36:18;100728.10;;;1.08;34.36
39954;BME280;25631;51.516;-0.470;2024-01-15T02:38:54;100726.06;;;1.13;34.28
39954;BME280;25631;51.516;-0.470;2024-01-15T02:41:31;100725.62;;;1.06;34.36
39954;BME280;25631;51.516;-0.470;2024-01-15T02:44:07;100728.08;;;0.97;34.33
39954;BME280;25631;51.516;-0.470;2024-01-15T02:46:44;100728.33;;;0.72;34.40
39954;BME280;25631;51.516;-0.470;2024-01-15T02:49:20;100726.54;;;0.70;34.43
39954;BME280;25631;51.516;-0.470;2024-01-15T02:51:57;100724.69;;;0.99;34.45
39954;BME280;25631;51.516;-0.470;2024-01-15T02:54:33;100725.12;;;0.82;34.43
39954;BME280;25631;51.516;-0.470;2024-01-15T02:57:10;100724.43;;;0.83;34.40
39954;BME280;25631;51.516;-0.470;2024-01-15T02:59:46;100723.46;;;0.99;34.41
39954;BME280;25631;51.516;-0.470;2024-01-15T03:02:23;100720.66;;;0.89;34.42
39954;BME280;25631;51.516;-0.470;2024-01-15T03:04:59;100719.06;;;1.00;34.38
39954;BME280;25631;51.516;-0.470;2024-01-15T03:07:36;100720.16;;;0.79;34.35
39954;BME280;25631;51.516;-0.470;2024-01-15T03:10:12;100721.32;;;1.06;34.32
39954;BME280;25631;51.516;-0.470;2024-01-15T03:12:49;100718.00;;;0.83;34.34
39954;BME280;25631;51.516;-0.470;2024-01-15T03:15:25;100718.75;;;0.70;34.33
39954;BME280;25631;51.516;-0.470;2024-01-15T03:18:02;100720.14;;;0.70;34.31
39954;BME280;25631;51.516;-0.470;2024-01-15T03:20:39;100722.00;;;0.83;34.30
39954;BME280;25631;51.516;-0.470;2024-01-15T03:23:15;100724.30;;;0.79;34.23
39954;BME280;25631;51.516;-0.470;2024-01-15T03:25:52;100724.84;;;0.74;34.21
39954;BME280;25631;51.516;-0.470;2024-01-15T03:28:28;100723.54;;;0.29;34.18
39954;BME280;25631;51.516;-0.470;2024-01-15T03:31:05;100721.38;;;0.87;34.15
39954;BME280;25631;51.516;-0.470;2024-01-15T03:33:42;100722.99;;;0.52;34.21
39954;BME280;25631;51.516;-0.470;2024-01-15T03:36:19;100722.41;;;0.54;34.20
39954;BME280;25631;51.516;-0.470;2024-01-15T03:38:55;100720.26;;;0.59;34.26
39954;BME280;25631;51.516;-0.470;2024-01-15T03:41:32;100722.45;;;0.58;34.31
39954;BME280;25631;51.516;-0.470;2024-01-15T03:44:09;100717.02;;;0.61;34.31
39954;BME280;25631;51.516;-0.470;2024-01-15T03:46:45;100713.44;;;0.43;34.37
39954;BME280;25631;51.516;-0.470;2024-01-15T03:49:22;100710.74;;;0.44;34.39
39954;BME280;25631;51.516;-0.470;2024-01-15T03:51:58;100709.92;;;0.34;34.31
39954;BME280;25631;51.516;-0.470;2024-01-15T03:54:35;100710.94;;;0.45;34.35
39954;BME280;25631;51.516;-0.470;2024-01-15T03:57:11;100708.45;;;0.51;34.38
39954;BME280;25631;51.516;-0.470;2024-01-15T03:59:47;100705.38;;;0.23;34.42
39954;BME280;25631;51.516;-0.470;2024-01-15T04:02:24;100703.96;;;0.47;34.43
39954;BME280;25631;51.516;-0.470;2024-01-15T04:05:00;100705.27;;;0.52;34.41
39954;BME280;25631;51.516;-0.470;2024-01-15T04:07:37;100704.51;;;0.55;34.47
39954;BME280;25631;51.516;-0.470;2024-01-15T04:10:13;100702.03;;;0.46;34.47
39954;BME280;25631;51.516;-0.470;2024-01-15T04:12:50;100701.51;;;0.38;34.41
39954;BME280;25631;51.516;-0.470;2024-01-15T04:15:26;100697.96;;;0.47;34.22
39954;BME280;25631;51.516;-0.470;2024-01-15T04:18:03;100689.37;;;0.28;34.23
39954;BME280;25631;51.516;-0.470;2024-01-15T04:20:39;100689.68;;;0.37;34.44
39954;BME280;25631;51.516;-0.470;2024-01-15T04:23:16;100685.45;;;0.36;34.50
39954;BME280;25631;51.516;-0.470;2024-01-15T04:25:52;100684.82;;;0.06;34.67
39954;BME280;25631;51.516;-0.470;2024-01-15T04:28:28;100684.19;;;0.10;34.79
39954;BME280;25631;51.516;-0.470;2024-01-15T04:31:05;100681.12;;;0.07;34.97
39954;BME280;25631;51.516;-0.470;2024-01-15T04:33:41;100679.42;;;-0.03;35.07
39954;BME280;25631;51.516;-0.470;2024-01-15T04:36:18;100675.98;;;0.17;35.01
39954;BME280;25631;51.516;-0.470;2024-01-15T04:38:55;100677.31;;;0.03;35.16
39954;BME280;25631;51.516;-0.470;2024-01-15T04:41:31;100681.72;;;-0.17;35.27
39954;BME280;25631;51.516;-0.470;2024-01-15T04:44:08;100683.68;;;-0.05;35.27
39954;BME280;25631;51.516;-0.470;2024-01-15T04:46:44;100688.85;;;-0.14;35.28
39954;BME280;25631;51.516;-0.470;2024-01-15T04:49:21;100688.92;;;-0.18;35.29
39954;BME280;25631;51.516;-0.470;2024-01-15T04:51:57;100689.29;;;-0.05;35.29
39954;BME280;25631;51.516;-0.470;2024-01-15T04:54:34;100686.56;;;-0.21;35.36
39954;BME280;25631;51.516;-0.470;2024-01-15T04:57:10;100685.80;;;-0.23;35.39
39954;BME280;25631;51.516;-0.470;2024-01-15T04:59:46;100685.51;;;-0.33;35.43
39954;BME280;25631;51.516;-0.470;2024-01-15T05:02:23;100684.81;;;-0.38;35.41
39954;BME280;25631;51.516;-0.470;2024-01-15T05:04:59;100684.69;;;-0.31;35.37
39954;BME280;25631;51.516;-0.470;2024-01-15T05:07:36;100685.84;;;-0.20;35.38
39954;BME280;25631;51.516;-0.470;2024-01-15T05:10:12;100687.24;;;-0.03;35.35
39954;BME280;25631;51.516;-0.470;2024-01-15T05:12:49;100684.75;;;-0.04;35.38
39954;BME280;25631;51.516;-0.470;2024-01-15T05:15:25;100691.39;;;0.21;35.37
39954;BME280;25631;51.516;-0.470;2024-01-15T05:18:02;100690.39;;;0.17;35.36
39954;BME280;25631;51.516;-0.470;2024-01-15T05:20:39;100689.65;;;0.08;35.34
39954;BME280;25631;51.516;-0.470;2024-01-15T05:23:15;100687.88;;;0.10;35.29
39954;BME280;25631;51.516;-0.470;2024-01-15T05:25:51;100679.64;;;0.13;35.24
39954;BME280;25631;51.516;-0.470;2024-01-15T05:28:28;100682.41;;;0.18;35.20
39954;BME280;25631;51.516;-0.470;2024-01-15T05:31:04;100685.61;;;0.22;35.17
39954;BME280;25631;51.516;-0.470;2024-01-15T05:33:41;100687.42;;;0.12;35.10
39954;BME280;25631;51.516;-0.470;2024-01-15T05:36:17;100682.20;;;0.14;35.09
39954;BME280;25631;51.516;-0.470;2024-01-15T05:38:54;100683.25;;;0.38;34.95
39954;BME280;25631;51.516;-0.470;2024-01-15T05:41:30;100682.96;;;0.16;34.95
39954;BME280;25631;51.516;-0.470;2024-01-15T05:44:07;100681.67;;;0.12;34.96
39954;BME280;25631;51.516;-0.470;2024-01-15T05:46:43;100677.95;;;0.11;34.93
39954;BME280;25631;51.516;-0.470;2024-01-15T05:49:20;100684.02;;;-0.07;34.96
39954;BME280;25631;51.516;-0.470;2024-01-15T05:51:56;100686.38;;;-0.09;34.98
39954;BME280;25631;51.516;-0.470;2024-01-15T05:54:33;100685.00;;;-0.09;35.11
39954;BME280;25631;51.516;-0.470;2024-01-15T05:57:09;100689.52;;;0.11;35.27
39954;BME280;25631;51.516;-0.470;2024-01-15T05:59:45;100685.91;;;-0.06;35.32
39954;BME280;25631;51.516;-0.470;2024-01-15T06:02:22;100687.10;;;-0.23;35.42
39954;BME280;25631;51.516;-0.470;2024-01-15T06:04:58;100689.90;;;-0.46;35.53
39954;BME280;25631;51.516;-0.470;2024-01-15T06:07:35;100687.57;;;-0.30;35.46
39954;BME280;25631;51.516;-0.470;2024-01-15T06:10:11;100690.82;;;-0.31;35.49
39954;BME280;25631;51.516;-0.470;2024-01-15T06:12:48;100695.44;;;-0.39;35.46
39954;BME280;25631;51.516;-0.470;2024-01-15T06:15:24;100692.82;;;-0.13;35.53
39954;BME280;25631;51.516;-0.470;2024-01-15T06:18:00;100700.76;;;-0.25;35.47
39954;BME280;25631;51.516;-0.470;2024-01-15T06:20:37;100708.00;;;-0.37;35.53
39954;BME280;25631;51.516;-0.470;2024-01-15T06:23:13;100706.91;;;-0.22;35.57
39954;BME280;25631;51.516;-0.470;2024-01-15T06:25:50;100708.99;;;-0.54;35.60
39954;BME280;25631;51.516;-0.470;2024-01-15T06:28:26;100713.72;;;-0.29;35.48
39954;BME280;25631;51.516;-0.470;2024-01-15T06:31:03;100715.59;;;-0.35;35.41
39954;BME280;25631;51.516;-0.470;2024-01-15T06:33:39;100721.35;;;-0.33;35.43
39954;BME280;25631;51.516;-0.470;2024-01-15T06:36:16;100727.98;;;-0.50;35.41
39954;BME280;25631;51.516;-0.470;2024-01-15T06:38:52;100726.21;;;-0.42;35.48
39954;BME280;25631;51.516;-0.470;2024-01-15T06:41:29;100726.77;;;-0.62;35.60
39954;BME280;25631;51.516;-0.470;2024-01-15T06:44:05;100730.76;;;-0.49;35.61
39954;BME280;25631;51.516;-0.470;2024-01-15T06:46:42;100732.16;;;-0.71;35.49
39954;BME280;25631;51.516;-0.470;2024-01-15T06:49:19;100726.90;;;-0.25;35.50
39954;BME280;25631;51.516;-0.470;2024-01-15T06:51:55;100727.73;;;-0.54;35.45
39954;BME280;25631;51.516;-0.470;2024-01-15T06:54:32;100730.61;;;-0.57;35.36
39954;BME280;25631;51.516;-0.470;2024-01-15T06:57:08;100730.82;;;-0.67;35.34
39954;BME280;25631;51.516;-0.470;2024-01-15T06:59:45;100738.36;;;-0.49;35.30
39954;BME280;25631;51.516;-0.470;2024-01-15T07:02:21;100734.29;;;0.08;35.28
39954;BME280;25631;51.516;-0.470;2024-01-15T07:04:58;100733.53;;;-0.31;35.21
39954;BME280;25631;51.516;-0.470;2024-01-15T07:07:34;100736.00;;;-0.56;35.11
39954;BME280;25631;51.516;-0.470;2024-01-15T07:10:10;100725.15;;;-0.27;35.11
39954;BME280;25631;51.516;-0.470;2024-01-15T07:12:47;100717.08;;;-0.66;35.05
39954;BME280;25631;51.516;-0.470;2024-01-15T07:15:23;100717.84;;;-0.53;34.91
39954;BME280;25631;51.516;-0.470;2024-01-15T07:18:00;100724.93;;;-0.74;34.97
39954;BME280;25631;51.516;-0.470;2024-01-15T07:20:36;100734.45;;;-0.83;34.97
39954;BME280;25631;51.516;-0.470;2024-01-15T07:23:14;100739.97;;;-0.68;34.95
39954;BME280;25631;51.516;-0.470;2024-01-15T07:25:51;100735.67;;;-0.62;34.89
39954;BME280;25631;51.516;-0.470;2024-01-15T07:28:29;100728.78;;;-0.82;34.80
39954;BME280;25631;51.516;-0.470;2024-01-15T07:31:05;100726.96;;;-0.53;34.77
39954;BME280;25631;51.516;-0.470;2024-01-15T07:33:42;100726.32;;;-0.76;34.70
39954;BME280;25631;51.516;-0.470;2024-01-15T07:36:18;100732.44;;;-0.89;34.60
39954;BME280;25631;51.516;-0.470;2024-01-15T07:38:55;100736.28;;;-0.78;34.59
39954;BME280;25631;51.516;-0.470;2024-01-15T07:41:31;100742.33;;;-1.07;34.58
39954;BME280;25631;51.516;-0.470;2024-01-15T07:44:08;100740.75;;;-0.50;34.42
39954;BME280;25631;51.516;-0.470;2024-01-15T07:46:45;100736.91;;;-0.73;34.38
39954;BME280;25631;51.516;-0.470;2024-01-15T07:49:21;100743.53;;;-0.74;34.34
39954;BME280;25631;51.516;-0.470;2024-01-15T07:51:58;100745.30;;;-0.97;34.38
39954;BME280;25631;51.516;-0.470;2024-01-15T07:54:34;100750.56;;;-1.00;34.35
39954;BME280;25631;51.516;-0.470;2024-01-15T07:57:10;100751.35;;;-0.71;34.41
39954;BME280;25631;51.516;-0.470;2024-01-15T07:59:47;100746.40;;;-0.92;34.41
39954;BME280;25631;51.516;-0.470;2024-01-15T08:02:23;100743.68;;;-0.76;34.38
39954;BME280;25631;51.516;-0.470;2024-01-15T08:05:00;100743.21;;;-0.75;34.37
39954;BME280;25631;51.516;-0.470;2024-01-15T08:07:36;100744.41;;;-0.76;34.36
39954;BME280;25631;51.516;-0.470;2024-01-15T08:10:13;100744.48;;;-0.72;34.38
39954;BME280;25631;51.516;-0.470;2024-01-15T08:12:49;100739.63;;;-0.80;34.34
39954;BME280;25631;51.516;-0.470;2024-01-15T08:15:25;100745.00;;;-0.86;34.34
39954;BME280;25631;51.516;-0.470;2024-01-15T08:18:02;100741.51;;;-0.49;34.25
39954;BME280;25631;51.516;-0.470;2024-01-15T08:20:38;100736.93;;;-0.82;34.24
39954;BME280;25631;51.516;-0.470;2024-01-15T08:23:15;100740.13;;;-0.70;34.16
39954;BME280;25631;51.516;-0.470;2024-01-15T08:25:51;100749.84;;;-0.30;34.00
39954;BME280;25631;51.516;-0.470;2024-01-15T08:28:28;100759.57;;;-0.57;33.95
39954;BME280;25631;51.516;-0.470;2024-01-15T08:31:04;100763.86;;;-0.78;33.80
39954;BME280;25631;51.516;-0.470;2024-01-15T08:33:41;100771.21;;;-0.92;33.71
39954;BME280;25631;51.516;-0.470;2024-01-15T08:36:17;100774.96;;;-0.26;33.67
39954;BME280;25631;51.516;-0.470;2024-01-15T08:38:54;100782.11;;;-0.54;33.72
39954;BME280;25631;51.516;-0.470;2024-01-15T08:41:31;100790.11;;;-0.44;33.79
39954;BME280;25631;51.516;-0.470;2024-01-15T08:44:08;100798.63;;;-0.56;33.75
39954;BME280;25631;51.516;-0.470;2024-01-15T08:46:44;100803.24;;;-0.80;33.85
39954;BME280;25631;51.516;-0.470;2024-01-15T08:49:21;100805.64;;;-0.58;33.79
39954;BME280;25631;51.516;-0.470;2024-01-15T08:51:59;100803.62;;;-0.89;33.86
39954;BME280;25631;51.516;-0.470;2024-01-15T08:54:35;100807.96;;;-0.54;33.92
39954;BME280;25631;51.516;-0.470;2024-01-15T08:57:12;100806.16;;;-0.82;34.04
39954;BME280;25631;51.516;-0.470;2024-01-15T08:59:49;100812.21;;;-0.78;34.21
39954;BME280;25631;51.516;-0.470;2024-01-15T09:02:25;100823.57;;;-0.78;34.28
39954;BME280;25631;51.516;-0.470;2024-01-15T09:05:02;100825.72;;;-0.69;34.31
39954;BME280;25631;51.516;-0.470;2024-01-15T09:07:39;100830.23;;;-0.38;34.21
39954;BME280;25631;51.516;-0.470;2024-01-15T09:10:15;100833.08;;;-0.64;34.31
39954;BME280;25631;51.516;-0.470;2024-01-15T09:12:51;100824.98;;;-1.00;34.41
39954;BME280;25631;51.516;-0.470;2024-01-15T09:15:28;100829.13;;;-0.61;34.34
39954;BME280;25631;51.516;-0.470;2024-01-15T09:18:05;100842.05;;;-0.68;34.37
39954;BME280;25631;51.516;-0.470;2024-01-15T09:20:41;100847.03;;;-0.86;34.39
39954;BME280;25631;51.516;-0.470;2024-01-15T09:23:18;100846.07;;;-0.60;34.41
39954;BME280;25631;51.516;-0.470;2024-01-15T09:25:54;100843.83;;;-0.43;34.58
39954;BME280;25631;51.516;-0.470;2024-01-15T09:28:30;100845.27;;;-0.66;34.70
39954;BME280;25631;51.516;-0.470;2024-01-15T09:31:07;100846.06;;;-0.59;34.50
39954;BME280;25631;51.516;-0.470;2024-01-15T09:33:43;100841.81;;;-0.62;34.68
39954;BME280;25631;51.516;-0.470;2024-01-15T09:36:20;100842.42;;;-0.67;34.86
39954;BME280;25631;51.516;-0.470;2024-01-15T09:38:56;100848.29;;;-0.73;34.54
39954;BME280;25631;51.516;-0.470;2024-01-15T09:41:34;100846.69;;;-0.52;34.47
39954;BME280;25631;51.516;-0.470;2024-01-15T09:44:12;100851.31;;;-0.17;34.30
39954;BME280;25631;51.516;-0.470;2024-01-15T09:46:49;100852.86;;;-0.57;34.28
39954;BME280;25631;51.516;-0.470;2024-01-15T09:49:25;100856.19;;;-0.32;34.17
39954;BME280;25631;51.516;-0.470;2024-01-15T09:52:02;100850.97;;;-0.46;34.06
39954;BME280;25631;51.516;-0.470;2024-01-15T09:54:39;100854.99;;;-0.37;34.08
39954;BME280;25631;51.516;-0.470;2024-01-15T09:57:16;100849.43;;;-0.17;33.94
39954;BME280;25631;51.516;-0.470;2024-01-15T09:59:54;100850.09;;;-0.41;33.98
39954;BME280;25631;51.516;-0.470;2024-01-15T10:02:31;100846.72;;;-0.62;33.90
39954;BME280;25631;51.516;-0.470;2024-01-15T10:05:07;100846.75;;;-0.21;33.73
39954;BME280;25631;51.516;-0.470;2024-01-15T10:07:46;100850.58;;;-0.45;33.62
39954;BME280;25631;51.516;-0.470;2024-01-15T10:10:23;100850.43;;;-0.52;33.37
39954;BME280;25631;51.516;-0.470;2024-01-15T10:13:00;100854.31;;;-0.59;33.28
39954;BME280;25631;51.516;-0.470;2024-01-15T10:15:38;100869.58;;;-0.34;33.10
39954;BME280;25631;51.516;-0.470;2024-01-15T10:18:14;100877.47;;;-0.41;32.45
39954;BME280;25631;51.516;-0.470;2024-01-15T10:20:51;100866.52;;;-0.33;32.07
39954;BME280;25631;51.516;-0.470;2024-01-15T10:23:28;100873.91;;;-0.42;32.16
39954;BME280;25631;51.516;-0.470;2024-01-15T10:26:05;100880.09;;;-0.77;32.24
39954;BME280;25631;51.516;-0.470;2024-01-15T10:28:41;100877.56;;;-0.58;32.35
39954;BME280;25631;51.516;-0.470;2024-01-15T10:31:18;100873.55;;;-0.68;32.35
39954;BME280;25631;51.516;-0.470;2024-01-15T10:33:54;100875.06;;;-0.77;32.22
39954;BME280;25631;51.516;-0.470;2024-01-15T10:36:46;100880.52;;;-0.50;32.32
39954;BME280;25631;51.516;-0.470;2024-01-15T10:39:22;100887.23;;;-0.70;32.08
39954;BME280;25631;51.516;-0.470;2024-01-15T10:41:59;100881.30;;;-0.68;31.98
39954;BME280;25631;51.516;-0.470;2024-01-15T10:44:35;100883.61;;;-0.62;31.93
39954;BME280;25631;51.516;-0.470;2024-01-15T10:47:12;100884.28;;;-0.52;31.88
39954;BME280;25631;51.516;-0.470;2024-01-15T10:49:50;100884.78;;;-0.03;31.77
39954;BME280;25631;51.516;-0.470;2024-01-15T10:52:27;100885.81;;;-0.20;31.53
39954;BME280;25631;51.516;-0.470;2024-01-15T10:55:05;100886.70;;;-0.10;31.17
39954;BME280;25631;51.516;-0.470;2024-01-15T10:57:44;100882.99;;;-0.00;31.02
39954;BME280;25631;51.516;-0.470;2024-01-15T11:00:21;100887.19;;;0.02;30.70
39954;BME280;25631;51.516;-0.470;2024-01-15T11:02:57;100889.06;;;0.24;30.60
39954;BME280;25631;51.516;-0.470;2024-01-15T11:05:37;100887.46;;;0.01;30.44
39954;BME280;25631;51.516;-0.470;2024-01-15T11:08:17;100889.98;;;-0.09;30.17
39954;BME280;25631;51.516;-0.470;2024-01-15T11:10:54;100886.29;;;-0.16;30.26
39954;BME280;25631;51.516;-0.470;2024-01-15T11:13:40;100898.69;;;-0.26;30.24
39954;BME280;25631;51.516;-0.470;2024-01-15T11:16:17;100893.59;;;-0.68;30.46
39954;BME280;25631;51.516;-0.470;2024-01-15T11:19:02;100899.02;;;-0.69;30.46
39954;BME280;25631;51.516;-0.470;2024-01-15T11:21:42;100906.35;;;-0.36;30.24
39954;BME280;25631;51.516;-0.470;2024-01-15T11:24:35;100910.37;;;-0.50;30.29
39954;BME280;25631;51.516;-0.470;2024-01-15T11:27:12;100915.44;;;-0.41;30.24
39954;BME280;25631;51.516;-0.470;2024-01-15T11:30:03;100913.93;;;-0.19;30.22
39954;BME280;25631;51.516;-0.470;2024-01-15T11:32:40;100917.16;;;-0.07;29.98
39954;BME280;25631;51.516;-0.470;2024-01-15T11:35:16;100921.59;;;-0.10;29.80
39954;BME280;25631;51.516;-0.470;2024-01-15T11:37:57;100914.27;;;-0.03;29.90
39954;BME280;25631;51.516;-0.470;2024-01-15T11:40:38;100917.56;;;0.01;30.01
39954;BME280;25631;51.516;-0.470;2024-01-15T11:43:15;100910.30;;;0.22;30.12
39954;BME280;25631;51.516;-0.470;2024-01-15T11:45:52;100913.55;;;0.15;30.14
39954;BME280;25631;51.516;-0.470;2024-01-15T11:48:41;100913.37;;;0.33;29.87
39954;BME280;25631;51.516;-0.470;2024-01-15T11:51:18;100913.83;;;0.26;29.91
39954;BME280;25631;51.516;-0.470;2024-01-15T11:53:58;100912.34;;;0.10;29.45
39954;BME280;25631;51.516;-0.470;2024-01-15T11:56:37;100922.50;;;-0.01;29.30
39954;BME280;25631;51.516;-0.470;2024-01-15T11:59:14;100917.05;;;-0.04;29.22
39954;BME280;25631;51.516;-0.470;2024-01-15T12:01:50;100914.66;;;0.18;29.36
39954;BME280;25631;51.516;-0.470;2024-01-15T12:04:27;100919.97;;;0.19;29.22
39954;BME280;25631;51.516;-0.470;2024-01-15T12:07:03;100921.57;;;0.17;29.26
39954;BME280;25631;51.516;-0.470;2024-01-15T12:09:43;100929.12;;;0.09;29.18
39954;BME280;25631;51.516;-0.470;2024-01-15T12:12:25;100926.29;;;0.52;29.24
39954;BME280;25631;51.516;-0.470;2024-01-15T12:15:05;100922.28;;;0.38;28.83
39954;BME280;25631;51.516;-0.470;2024-01-15T12:17:41;100927.45;;;0.16;28.44
39954;BME280;25631;51.516;-0.470;2024-01-15T12:20:18;100925.25;;;0.69;28.59
39954;BME280;25631;51.516;-0.470;2024-01-15T12:22:55;100923.91;;;0.59;28.77
39954;BME280;25631;51.516;-0.470;2024-01-15T12:25:32;100925.25;;;0.18;28.51
39954;BME280;25631;51.516;-0.470;2024-01-15T12:28:09;100915.61;;;0.45;28.27
39954;BME280;25631;51.516;-0.470;2024-01-15T12:30:47;100915.15;;;0.10;28.14
39954;BME280;25631;51.516;-0.470;2024-01-15T12:33:23;100919.51;;;0.39;28.18
39954;BME280;25631;51.516;-0.470;2024-01-15T12:35:59;100915.71;;;0.63;28.38
39954;BME280;25631;51.516;-0.470;2024-01-15T12:38:36;100923.05;;;0.67;28.42
39954;BME280;25631;51.516;-0.470;2024-01-15T12:41:13;100918.15;;;0.98;28.36
39954;BME280;25631;51.516;-0.470;2024-01-15T12:43:49;100918.80;;;0.75;28.38
39954;BME280;25631;51.516;-0.470;2024-01-15T12:46:26;100915.66;;;1.04;28.20
39954;BME280;25631;51.516;-0.470;2024-01-15T12:49:04;100916.92;;;0.86;27.99
39954;BME280;25631;51.516;-0.470;2024-01-15T12:51:40;100927.28;;;1.01;27.88
39954;BME280;25631;51.516;-0.470;2024-01-15T12:54:16;100931.78;;;0.41;27.65
39954;BME280;25631;51.516;-0.470;2024-01-15T12:56:53;100925.16;;;0.90;27.49
39954;BME280;25631;51.516;-0.470;2024-01-15T12:59:29;100920.35;;;0.79;27.51
39954;BME280;25631;51.516;-0.470;2024-01-15T13:02:06;100922.88;;;0.81;27.27
39954;BME280;25631;51.516;-0.470;2024-01-15T13:04:43;100918.29;;;0.96;27.12
39954;BME280;25631;51.516;-0.470;2024-01-15T13:07:19;100913.89;;;1.13;27.18
39954;BME280;25631;51.516;-0.470;2024-01-15T13:09:55;100915.31;;;0.73;27.25
39954;BME280;25631;51.516;-0.470;2024-01-15T13:12:33;100913.48;;;1.24;27.34
39954;BME280;25631;51.516;-0.470;2024-01-15T13:15:09;100914.91;;;0.81;27.37
39954;BME280;25631;51.516;-0.470;2024-01-15T13:17:46;100914.37;;;1.05;27.14
39954;BME280;25631;51.516;-0.470;2024-01-15T13:20:22;100913.27;;;1.35;27.10
39954;BME280;25631;51.516;-0.470;2024-01-15T13:22:59;100905.79;;;1.23;26.63
39954;BME280;25631;51.516;-0.470;2024-01-15T13:25:35;100911.51;;;0.99;26.60
39954;BME280;25631;51.516;-0.470;2024-01-15T13:28:11;100912.90;;;1.15;26.42
39954;BME280;25631;51.516;-0.470;2024-01-15T13:30:48;100915.08;;;0.89;26.16
39954;BME280;25631;51.516;-0.470;2024-01-15T13:33:24;100907.85;;;1.11;26.10
39954;BME280;25631;51.516;-0.470;2024-01-15T13:36:01;100912.54;;;1.01;26.19